createdAt,value
2018-04-14T00:01:21.146Z,62.60
2018-04-14T00:03:49.686Z,62.60
2018-04-14T00:06:18.092Z,62.70
2018-04-14T00:08:46.488Z,62.60
2018-04-14T00:11:15.701Z,62.10
2018-04-14T00:13:44.186Z,62.00
2018-04-14T00:16:12.634Z,62.30
2018-04-14T00:18:41.006Z,62.00
2018-04-14T00:21:10.380Z,62.30
2018-04-14T00:23:38.826Z,62.50
2018-04-14T00:26:07.610Z,62.30
2018-04-14T00:28:36.018Z,62.30
2018-04-14T00:31:04.421Z,62.00
2018-04-14T00:33:33.142Z,63.00
2018-04-14T00:36:02.300Z,62.20
2018-04-14T00:38:30.680Z,62.20
2018-04-14T00:40:59.252Z,62.40
2018-04-14T00:43:27.800Z,63.00
2018-04-14T00:45:56.165Z,63.00
2018-04-14T00:48:25.299Z,63.00
2018-04-14T00:50:53.692Z,63.00
2018-04-14T00:53:33.775Z,63.00
2018-04-14T00:56:02.938Z,62.60
2018-04-14T00:58:31.382Z,62.10
2018-04-14T01:01:01.250Z,62.50
2018-04-14T01:03:29.996Z,62.90
2018-04-14T01:05:58.363Z,63.20
2018-04-14T01:08:26.750Z,62.70
2018-04-14T01:10:55.160Z,63.20
2018-04-14T01:13:24.149Z,63.30
2018-04-14T01:15:52.562Z,62.90
2018-04-14T01:18:21.732Z,63.00
2018-04-14T01:20:50.084Z,63.00
2018-04-14T01:23:18.458Z,63.20
2018-04-14T01:25:47.327Z,63.30
2018-04-14T01:28:16.106Z,63.60
2018-04-14T01:30:44.478Z,63.20
2018-04-14T01:33:14.227Z,62.50
2018-04-14T01:35:42.594Z,62.50
2018-04-14T01:38:10.992Z,62.70
2018-04-14T01:40:39.370Z,62.50
2018-04-14T01:43:07.740Z,63.20
2018-04-14T01:45:37.715Z,63.30
2018-04-14T01:48:07.357Z,62.90
2018-04-14T01:50:35.954Z,62.90
2018-04-14T01:53:04.297Z,62.60
2018-04-14T01:55:33.176Z,62.40
2018-04-14T01:58:01.539Z,62.50
2018-04-14T02:00:30.693Z,63.00
2018-04-14T02:02:59.120Z,62.90
2018-04-14T02:05:28.243Z,62.80
2018-04-14T02:07:56.635Z,62.80
2018-04-14T02:10:24.997Z,62.60
2018-04-14T02:12:53.414Z,62.70
2018-04-14T02:15:21.973Z,62.60
2018-04-14T02:17:50.359Z,62.80
2018-04-14T02:20:18.769Z,62.90
2018-04-14T02:22:47.166Z,63.00
2018-04-14T02:25:16.305Z,63.30
2018-04-14T02:27:44.679Z,63.20
2018-04-14T02:30:13.046Z,62.90
2018-04-14T02:32:41.415Z,62.80
2018-04-14T02:35:09.830Z,62.70
2018-04-14T02:37:38.215Z,63.10
2018-04-14T02:40:06.618Z,63.00
2018-04-14T02:42:34.992Z,62.30
2018-04-14T02:45:03.355Z,62.10
2018-04-14T02:47:31.794Z,62.30
2018-04-14T02:50:00.189Z,62.30
2018-04-14T02:52:28.646Z,62.20
2018-04-14T02:54:57.072Z,62.20
2018-04-14T02:57:25.426Z,61.80
2018-04-14T02:59:53.787Z,61.60
2018-04-14T03:02:22.146Z,61.40
2018-04-14T03:04:50.543Z,61.40
2018-04-14T03:07:18.900Z,61.50
2018-04-14T03:09:48.062Z,62.20
2018-04-14T03:12:16.407Z,62.20
2018-04-14T03:14:44.818Z,61.80
2018-04-14T03:17:13.180Z,61.70
2018-04-14T03:19:41.557Z,61.70
2018-04-14T03:22:09.924Z,61.50
2018-04-14T03:24:38.394Z,61.30
2018-04-14T03:27:06.782Z,61.40
2018-04-14T03:29:35.139Z,61.40
2018-04-14T03:32:03.553Z,61.60
2018-04-14T03:34:31.898Z,61.80
2018-04-14T03:37:00.386Z,61.50
2018-04-14T03:39:28.762Z,61.80
2018-04-14T03:41:57.202Z,61.20
2018-04-14T03:44:26.621Z,61.40
2018-04-14T03:46:55.011Z,61.40
2018-04-14T03:49:23.793Z,61.90
2018-04-14T03:51:52.439Z,61.60
2018-04-14T03:54:21.587Z,61.70
2018-04-14T03:56:49.997Z,61.70
2018-04-14T03:59:18.755Z,62.40
2018-04-14T04:01:47.188Z,62.80
2018-04-14T04:04:16.323Z,63.20
2018-04-14T04:06:44.819Z,63.10
2018-04-14T04:09:13.179Z,63.30
2018-04-14T04:11:41.631Z,63.50
2018-04-14T04:14:10.007Z,62.90
2018-04-14T04:16:39.198Z,62.80
2018-04-14T04:19:20.007Z,62.70
2018-04-14T04:22:00.164Z,62.60
2018-04-14T04:24:40.315Z,62.60
2018-04-14T04:27:08.665Z,62.30
2018-04-14T04:29:37.039Z,62.40
2018-04-14T04:32:06.191Z,62.20
2018-04-14T04:34:34.555Z,62.10
2018-04-14T04:37:02.942Z,61.50
2018-04-14T04:39:31.333Z,62.00
2018-04-14T04:41:59.848Z,62.10
2018-04-14T04:44:29.011Z,62.20
2018-04-14T04:46:57.454Z,62.10
2018-04-14T04:49:25.834Z,61.80
2018-04-14T04:51:54.206Z,62.00
2018-04-14T04:54:22.601Z,62.20
2018-04-14T04:56:50.970Z,61.60
2018-04-14T04:59:19.342Z,62.10
2018-04-14T05:01:48.085Z,62.40
2018-04-14T05:04:17.234Z,62.60
2018-04-14T05:06:45.622Z,62.60
2018-04-14T05:09:14.587Z,62.40
2018-04-14T05:11:43.838Z,62.40
2018-04-14T05:14:12.230Z,62.70
2018-04-14T05:16:41.359Z,62.90
2018-04-14T05:19:09.803Z,62.90
2018-04-14T05:21:38.171Z,63.20
2018-04-14T05:24:06.671Z,62.70
2018-04-14T05:26:35.791Z,63.60
2018-04-14T05:29:04.430Z,63.50
2018-04-14T05:31:33.616Z,64.20
2018-04-14T05:34:01.986Z,63.50
2018-04-14T05:36:30.378Z,64.10
2018-04-14T05:38:58.754Z,64.70
2018-04-14T05:41:27.114Z,64.00
2018-04-14T05:43:55.482Z,64.60
2018-04-14T05:46:24.723Z,64.50
2018-04-14T05:48:53.866Z,64.30
2018-04-14T05:51:22.914Z,64.20
2018-04-14T05:53:52.078Z,64.90
2018-04-14T05:56:20.455Z,64.90
2018-04-14T05:58:48.920Z,64.70
2018-04-14T06:01:17.290Z,64.40
2018-04-14T06:03:46.525Z,64.20
2018-04-14T06:06:14.870Z,64.20
2018-04-14T06:08:43.251Z,63.30
2018-04-14T06:11:12.499Z,64.10
2018-04-14T06:13:41.655Z,64.30
2018-04-14T06:16:10.040Z,64.30
2018-04-14T06:18:38.432Z,65.60
2018-04-14T06:21:06.892Z,65.90
2018-04-14T06:23:36.035Z,66.90
2018-04-14T06:26:05.180Z,65.40
2018-04-14T06:28:33.584Z,65.30
2018-04-14T06:31:02.176Z,65.60
2018-04-14T06:33:31.315Z,66.80
2018-04-14T06:35:59.716Z,66.20
2018-04-14T06:38:28.085Z,64.10
2018-04-14T06:40:56.508Z,64.30
2018-04-14T06:43:24.942Z,63.10
2018-04-14T06:45:53.937Z,63.30
2018-04-14T06:48:22.359Z,64.50
2018-04-14T06:50:51.545Z,63.30
2018-04-14T06:53:19.903Z,63.20
2018-04-14T06:55:48.363Z,62.50
2018-04-14T06:58:17.495Z,61.90
2018-04-14T07:00:46.103Z,61.90
2018-04-14T07:03:15.622Z,60.20
2018-04-14T07:05:43.975Z,60.10
2018-04-14T07:08:12.817Z,59.70
2018-04-14T07:10:41.190Z,59.80
2018-04-14T07:13:09.612Z,61.20
2018-04-14T07:15:38.031Z,60.00
2018-04-14T07:18:06.419Z,60.10
2018-04-14T07:20:34.809Z,59.90
2018-04-14T07:23:03.214Z,60.90
2018-04-14T07:25:31.566Z,60.70
2018-04-14T07:27:59.983Z,59.90
2018-04-14T07:30:29.134Z,58.60
2018-04-14T07:32:57.504Z,58.60
2018-04-14T07:35:25.943Z,56.20
2018-04-14T07:37:54.400Z,56.60
2018-04-14T07:40:22.880Z,54.80
2018-04-14T07:42:51.282Z,56.20
2018-04-14T07:45:20.443Z,56.30
2018-04-14T07:47:48.822Z,56.30
2018-04-14T07:50:17.268Z,55.30
2018-04-14T07:52:45.653Z,53.70
2018-04-14T07:55:14.370Z,55.10
2018-04-14T07:57:42.815Z,54.50
2018-04-14T08:00:11.991Z,52.70
2018-04-14T08:02:40.404Z,52.60
2018-04-14T08:05:08.916Z,54.30
2018-04-14T08:07:37.288Z,52.90
2018-04-14T08:10:05.719Z,52.50
2018-04-14T08:12:34.158Z,54.00
2018-04-14T08:15:03.471Z,54.00
2018-04-14T08:17:32.871Z,53.00
2018-04-14T08:20:02.045Z,51.60
2018-04-14T08:22:30.496Z,51.70
2018-04-14T08:24:58.902Z,52.00
2018-04-14T08:27:27.358Z,52.30
2018-04-14T08:29:55.774Z,52.70
2018-04-14T08:32:24.930Z,52.60
2018-04-14T08:34:53.499Z,52.50
2018-04-14T08:37:21.882Z,52.00
2018-04-14T08:39:50.326Z,52.00
2018-04-14T08:42:19.494Z,51.90
2018-04-14T08:44:47.842Z,51.90
2018-04-14T08:47:16.259Z,54.20
2018-04-14T08:49:44.686Z,54.80
2018-04-14T08:52:13.090Z,52.20
2018-04-14T08:54:41.561Z,51.10
2018-04-14T08:57:10.759Z,52.00
2018-04-14T08:59:39.145Z,52.00
2018-04-14T09:02:07.508Z,53.30
2018-04-14T09:04:35.952Z,51.10
2018-04-14T09:07:04.635Z,50.90
2018-04-14T09:09:33.835Z,50.80
2018-04-14T09:12:02.207Z,50.80
2018-04-14T09:14:31.443Z,49.10
2018-04-14T09:16:59.804Z,49.10
2018-04-14T09:19:28.205Z,50.10
2018-04-14T09:21:56.600Z,48.60
2018-04-14T09:24:25.021Z,48.80
2018-04-14T09:26:54.150Z,47.40
2018-04-14T09:29:22.564Z,47.40
2018-04-14T09:31:50.942Z,47.50
2018-04-14T09:34:19.324Z,47.50
2018-04-14T09:36:47.751Z,46.80
2018-04-14T09:39:16.181Z,47.50
2018-04-14T09:41:44.556Z,47.20
2018-04-14T09:44:12.962Z,47.90
2018-04-14T09:46:42.099Z,46.80
2018-04-14T09:49:10.524Z,45.90
2018-04-14T09:51:39.655Z,48.20
2018-04-14T09:54:08.034Z,48.10
2018-04-14T09:56:36.424Z,46.10
2018-04-14T09:59:05.089Z,47.20
2018-04-14T10:01:33.464Z,44.50
2018-04-14T10:04:02.205Z,45.30
2018-04-14T10:06:30.663Z,43.20
2018-04-14T10:09:12.115Z,42.20
2018-04-14T10:11:40.468Z,44.70
2018-04-14T10:14:09.038Z,44.70
2018-04-14T10:16:37.443Z,44.70
2018-04-14T10:19:05.996Z,44.70
2018-04-14T10:21:35.414Z,42.40
2018-04-14T10:24:04.523Z,42.20
2018-04-14T10:26:32.938Z,44.20
2018-04-14T10:29:01.398Z,42.50
2018-04-14T10:31:29.814Z,40.60
2018-04-14T10:33:58.970Z,40.20
2018-04-14T10:36:27.375Z,40.30
2018-04-14T10:38:55.738Z,40.60
2018-04-14T10:41:24.116Z,40.90
2018-04-14T10:43:52.517Z,42.80
2018-04-14T10:46:20.931Z,41.50
2018-04-14T10:48:49.384Z,40.60
2018-04-14T10:51:17.855Z,39.20
2018-04-14T10:53:46.342Z,41.50
2018-04-14T10:56:15.485Z,39.10
2018-04-14T10:58:43.879Z,39.20
2018-04-14T11:01:12.718Z,37.20
2018-04-14T11:03:41.213Z,38.70
2018-04-14T11:06:09.620Z,39.40
2018-04-14T11:08:38.010Z,39.00
2018-04-14T11:11:06.602Z,36.90
2018-04-14T11:13:34.978Z,36.50
2018-04-14T11:16:03.343Z,36.70
2018-04-14T11:18:31.754Z,38.10
2018-04-14T11:21:00.133Z,36.60
2018-04-14T11:23:28.543Z,36.70
2018-04-14T11:25:57.016Z,36.80
2018-04-14T11:28:26.265Z,38.20
2018-04-14T11:30:54.697Z,38.20
2018-04-14T11:33:23.337Z,37.30
2018-04-14T11:35:51.757Z,34.40
2018-04-14T11:38:20.423Z,39.40
2018-04-14T11:40:49.616Z,35.30
2018-04-14T11:43:17.995Z,35.10
2018-04-14T11:45:46.450Z,33.80
2018-04-14T11:48:14.813Z,35.90
2018-04-14T11:50:43.269Z,35.50
2018-04-14T11:53:11.715Z,34.20
2018-04-14T11:55:40.858Z,35.30
2018-04-14T11:58:09.269Z,35.30
2018-04-14T12:00:38.439Z,34.40
2018-04-14T12:03:07.611Z,34.90
2018-04-14T12:05:36.307Z,36.20
2018-04-14T12:08:04.832Z,37.20
2018-04-14T12:10:33.243Z,34.50
2018-04-14T12:13:02.815Z,33.10
2018-04-14T12:15:31.262Z,33.20
2018-04-14T12:17:59.647Z,33.90
2018-04-14T12:20:28.061Z,36.10
2018-04-14T12:22:56.456Z,36.70
2018-04-14T12:25:25.658Z,34.60
2018-04-14T12:27:54.790Z,33.40
2018-04-14T12:30:24.932Z,33.50
2018-04-14T12:32:54.978Z,33.00
2018-04-14T12:35:23.652Z,33.00
2018-04-14T12:37:58.915Z,35.50
2018-04-14T12:40:27.407Z,32.60
2018-04-14T12:42:55.825Z,33.80
2018-04-14T12:45:24.273Z,32.80
2018-04-14T12:47:53.901Z,32.30
2018-04-14T12:50:22.321Z,33.50
2018-04-14T12:52:51.475Z,30.00
2018-04-14T12:55:19.849Z,30.00
2018-04-14T12:57:48.280Z,31.00
2018-04-14T13:00:17.440Z,32.70
2018-04-14T13:02:46.367Z,32.70
2018-04-14T13:05:15.553Z,30.00
2018-04-14T13:07:43.981Z,29.90
2018-04-14T13:10:12.543Z,29.20
2018-04-14T13:12:40.907Z,33.30
2018-04-14T13:15:10.062Z,30.00
2018-04-14T13:17:38.536Z,30.00
2018-04-14T13:20:07.248Z,31.60
2018-04-14T13:22:35.666Z,29.90
2018-04-14T13:25:04.534Z,29.60
2018-04-14T13:27:34.582Z,29.60
2018-04-14T13:30:03.122Z,29.60
2018-04-14T13:32:31.580Z,30.70
2018-04-14T13:34:59.950Z,30.30
2018-04-14T13:37:28.351Z,32.50
2018-04-14T13:39:56.773Z,32.50
2018-04-14T13:42:25.201Z,30.10
2018-04-14T13:44:53.648Z,32.50
2018-04-14T13:47:22.121Z,34.30
2018-04-14T13:49:50.558Z,32.60
2018-04-14T13:52:19.736Z,32.20
2018-04-14T13:54:48.142Z,32.20
2018-04-14T13:57:17.329Z,32.30
2018-04-14T13:59:47.472Z,33.80
2018-04-14T14:02:15.893Z,33.80
2018-04-14T14:04:46.181Z,32.10
2018-04-14T14:07:14.806Z,31.60
2018-04-14T14:09:43.252Z,31.60
2018-04-14T14:12:12.486Z,29.90
2018-04-14T14:14:40.871Z,29.80
2018-04-14T14:17:09.374Z,29.30
2018-04-14T14:19:38.576Z,30.10
2018-04-14T14:22:06.952Z,29.90
2018-04-14T14:24:36.135Z,30.70
2018-04-14T14:27:04.525Z,30.60
2018-04-14T14:29:33.690Z,29.30
2018-04-14T14:32:02.086Z,29.30
2018-04-14T14:34:30.613Z,29.80
2018-04-14T14:36:58.995Z,30.70
2018-04-14T14:39:27.390Z,29.20
2018-04-14T14:41:56.003Z,28.80
2018-04-14T14:44:24.469Z,30.00
2018-04-14T14:46:52.834Z,29.70
2018-04-14T14:49:21.255Z,28.60
2018-04-14T14:51:50.400Z,30.00
2018-04-14T14:54:18.848Z,30.00
2018-04-14T14:56:47.383Z,30.80
2018-04-14T14:59:15.741Z,32.60
2018-04-14T15:01:44.236Z,30.30
2018-04-14T15:04:12.631Z,32.00
2018-04-14T15:06:41.035Z,31.10
2018-04-14T15:09:10.177Z,32.30
2018-04-14T15:11:38.560Z,32.30
2018-04-14T15:14:06.930Z,31.40
2018-04-14T15:16:36.096Z,33.10
2018-04-14T15:19:04.500Z,32.60
2018-04-14T15:21:32.889Z,32.20
2018-04-14T15:24:01.301Z,32.30
2018-04-14T15:26:29.686Z,32.30
2018-04-14T15:28:58.839Z,32.00
2018-04-14T15:31:27.242Z,32.10
2018-04-14T15:33:55.620Z,32.30
2018-04-14T15:36:24.006Z,32.20
2018-04-14T15:38:52.686Z,32.10
2018-04-14T15:41:21.080Z,32.90
2018-04-14T15:43:50.343Z,34.00
2018-04-14T15:46:20.431Z,34.00
2018-04-14T15:48:48.887Z,33.70
2018-04-14T15:51:17.234Z,33.50
2018-04-14T15:53:45.677Z,34.40
2018-04-14T15:56:14.278Z,33.40
2018-04-14T15:58:42.658Z,33.80
2018-04-14T16:01:11.064Z,34.20
2018-04-14T16:03:44.724Z,34.40
2018-04-14T16:06:08.730Z,34.40
2018-04-14T16:08:37.178Z,34.10
2018-04-14T16:11:05.614Z,33.80
2018-04-14T16:13:34.797Z,34.30
2018-04-14T16:16:04.047Z,34.20
2018-04-14T16:18:32.462Z,34.30
2018-04-14T16:21:00.865Z,34.70
2018-04-14T16:23:30.765Z,35.10
2018-04-14T16:25:59.149Z,34.90
2018-04-14T16:28:28.010Z,35.30
2018-04-14T16:30:56.416Z,36.00
2018-04-14T16:33:25.590Z,37.20
2018-04-14T16:35:53.990Z,36.40
2018-04-14T16:38:23.153Z,35.90
2018-04-14T16:40:51.582Z,35.90
2018-04-14T16:43:19.980Z,35.10
2018-04-14T16:45:48.472Z,36.40
2018-04-14T16:48:17.104Z,36.60
2018-04-14T16:50:45.719Z,38.00
2018-04-14T16:53:14.099Z,37.90
2018-04-14T16:55:42.480Z,37.00
2018-04-14T16:58:11.132Z,38.00
2018-04-14T17:00:39.801Z,37.80
2018-04-14T17:03:08.561Z,37.90
2018-04-14T17:05:37.110Z,37.90
2018-04-14T17:08:05.614Z,38.00
2018-04-14T17:10:34.031Z,37.70
2018-04-14T17:13:02.438Z,37.70
2018-04-14T17:15:31.005Z,38.50
2018-04-14T17:18:01.227Z,37.70
2018-04-14T17:20:30.628Z,38.50
2018-04-14T17:22:59.795Z,37.60
2018-04-14T17:25:28.789Z,37.50
2018-04-14T17:27:58.236Z,39.10
2018-04-14T17:30:28.022Z,38.70
2018-04-14T17:32:56.390Z,38.70
2018-04-14T17:35:24.776Z,39.40
2018-04-14T17:37:53.178Z,39.50
2018-04-14T17:40:22.591Z,40.50
2018-04-14T17:42:50.964Z,40.50
2018-04-14T17:45:19.332Z,39.90
2018-04-14T17:47:48.639Z,40.40
2018-04-14T17:50:17.003Z,40.20
2018-04-14T17:52:46.202Z,40.90
2018-04-14T17:55:15.862Z,40.60
2018-04-14T17:57:44.443Z,40.50
2018-04-14T18:00:12.796Z,41.10
2018-04-14T18:02:41.238Z,42.40
2018-04-14T18:05:10.421Z,43.20
2018-04-14T18:07:38.801Z,42.40
2018-04-14T18:10:08.781Z,42.40
2018-04-14T18:12:37.160Z,43.10
2018-04-14T18:15:05.537Z,43.20
2018-04-14T18:17:33.924Z,44.60
2018-04-14T18:20:02.341Z,45.30
2018-04-14T18:22:30.855Z,44.90
2018-04-14T18:25:00.069Z,45.10
2018-04-14T18:27:28.455Z,45.10
2018-04-14T18:29:56.988Z,46.00
2018-04-14T18:32:26.252Z,46.70
2018-04-14T18:34:54.646Z,46.50
2018-04-14T18:37:23.052Z,47.40
2018-04-14T18:39:52.212Z,47.70
2018-04-14T18:42:20.801Z,47.60
2018-04-14T18:44:49.163Z,48.20
2018-04-14T18:47:17.575Z,48.60
2018-04-14T18:49:46.731Z,49.10
2018-04-14T18:52:15.146Z,49.10
2018-04-14T18:54:44.330Z,49.00
2018-04-14T18:57:12.772Z,48.90
2018-04-14T18:59:41.176Z,48.20
2018-04-14T19:02:09.580Z,48.50
2018-04-14T19:04:38.983Z,48.60
2018-04-14T19:07:08.245Z,48.20
2018-04-14T19:09:36.652Z,48.10
2018-04-14T19:12:05.023Z,47.80
2018-04-14T19:14:33.468Z,48.00
2018-04-14T19:17:01.858Z,49.10
2018-04-14T19:19:31.023Z,49.90
2018-04-14T19:21:59.458Z,49.70
2018-04-14T19:24:27.907Z,49.10
2018-04-14T19:26:56.275Z,49.00
2018-04-14T19:29:24.687Z,48.90
2018-04-14T19:31:53.071Z,48.60
2018-04-14T19:34:21.452Z,49.70
2018-04-14T19:36:49.900Z,50.10
2018-04-14T19:39:18.389Z,50.00
2018-04-14T19:41:46.809Z,50.60
2018-04-14T19:44:16.044Z,50.80
2018-04-14T19:46:44.439Z,50.60
2018-04-14T19:49:13.199Z,50.90
2018-04-14T19:51:41.683Z,51.40
2018-04-14T19:54:10.421Z,50.60
2018-04-14T19:56:38.895Z,50.80
2018-04-14T19:59:07.290Z,50.90
2018-04-14T20:01:35.662Z,51.20
2018-04-14T20:04:04.863Z,51.30
2018-04-14T20:06:34.047Z,51.20
2018-04-14T20:09:02.440Z,51.20
2018-04-14T20:11:31.625Z,51.00
2018-04-14T20:14:00.048Z,50.90
2018-04-14T20:16:28.442Z,51.20
2018-04-14T20:18:56.873Z,50.90
2018-04-14T20:21:26.031Z,50.50
2018-04-14T20:23:55.198Z,50.30
2018-04-14T20:26:23.826Z,50.90
2018-04-14T20:28:52.191Z,50.90
2018-04-14T20:31:20.574Z,51.10
2018-04-14T20:33:49.356Z,51.40
2018-04-14T20:36:17.760Z,50.80
2018-04-14T20:38:46.162Z,51.90
2018-04-14T20:41:15.309Z,51.00
2018-04-14T20:43:43.694Z,50.90
2018-04-14T20:46:12.080Z,51.60
2018-04-14T20:48:40.541Z,51.60
2018-04-14T20:51:08.950Z,51.70
2018-04-14T20:53:38.209Z,51.70
2018-04-14T20:56:06.570Z,51.60
2018-04-14T20:58:34.987Z,51.70
2018-04-14T21:01:03.355Z,51.50
2018-04-14T21:03:31.750Z,51.70
2018-04-14T21:06:00.199Z,51.50
2018-04-14T21:08:28.575Z,52.00
2018-04-14T21:10:56.972Z,52.40
2018-04-14T21:13:25.345Z,52.50
2018-04-14T21:15:54.509Z,52.40
2018-04-14T21:18:22.937Z,52.30
2018-04-14T21:20:51.348Z,52.60
2018-04-14T21:23:19.714Z,52.50
2018-04-14T21:25:48.875Z,52.50
2018-04-14T21:28:17.312Z,52.40
2018-04-14T21:30:45.738Z,52.70
2018-04-14T21:33:14.107Z,53.60
2018-04-14T21:35:42.551Z,53.50
2018-04-14T21:38:10.933Z,53.00
2018-04-14T21:40:39.325Z,53.50
2018-04-14T21:43:07.830Z,53.60
2018-04-14T21:45:36.219Z,52.70
2018-04-14T21:48:04.608Z,53.20
2018-04-14T21:50:32.966Z,52.60
2018-04-14T21:53:01.389Z,52.30
2018-04-14T21:55:30.515Z,52.20
2018-04-14T21:57:58.906Z,52.20
2018-04-14T22:00:27.373Z,52.30
2018-04-14T22:02:55.784Z,52.40
2018-04-14T22:05:24.256Z,52.50
2018-04-14T22:07:52.669Z,52.40
2018-04-14T22:10:21.814Z,52.40
2018-04-14T22:12:50.228Z,52.20
2018-04-14T22:15:18.611Z,52.30
2018-04-14T22:17:47.744Z,52.90
2018-04-14T22:20:16.182Z,52.90
2018-04-14T22:22:45.329Z,53.60
2018-04-14T22:25:14.055Z,53.50
2018-04-14T22:27:42.454Z,53.30
2018-04-14T22:30:11.598Z,53.70
2018-04-14T22:32:40.146Z,53.60
2018-04-14T22:35:08.514Z,53.50
2018-04-14T22:37:36.968Z,53.60
2018-04-14T22:40:05.356Z,53.80
2018-04-14T22:42:33.739Z,53.10
2018-04-14T22:45:02.913Z,53.80
2018-04-14T22:47:31.287Z,53.80
2018-04-14T22:49:59.685Z,54.10
2018-04-14T22:52:28.066Z,54.20
2018-04-14T22:54:57.231Z,53.90
2018-04-14T22:57:25.594Z,53.70
2018-04-14T22:59:53.971Z,53.90
2018-04-14T23:02:22.386Z,54.30
2018-04-14T23:04:50.814Z,54.90
2018-04-14T23:07:19.179Z,55.30
2018-04-14T23:09:47.539Z,55.30
2018-04-14T23:12:16.709Z,56.10
2018-04-14T23:14:45.342Z,56.00
2018-04-14T23:17:13.722Z,56.80
2018-04-14T23:19:42.296Z,56.80
2018-04-14T23:22:10.651Z,56.00
2018-04-14T23:24:39.810Z,56.30
2018-04-14T23:27:08.264Z,56.10
2018-04-14T23:29:36.749Z,56.30
2018-04-14T23:32:05.155Z,55.70
2018-04-14T23:34:33.578Z,55.90
2018-04-14T23:37:01.990Z,55.70
2018-04-14T23:39:30.523Z,55.60
2018-04-14T23:41:59.653Z,56.10
2018-04-14T23:44:28.063Z,56.10
2018-04-14T23:46:56.430Z,56.10
2018-04-14T23:49:24.844Z,56.30
2018-04-14T23:51:53.328Z,55.90
2018-04-14T23:54:22.559Z,56.00
2018-04-14T23:56:50.917Z,55.90
2018-04-14T23:59:20.067Z,56.10
